sensor_id;sensor_type;location;lat;lon;timestamp;pressure;altitude;pressure_sealevel;temperature;humidity
6020;BME280;3038;51.122;6.840;2023-09-19T00:00:19;63325.50;;;-144.63;100.00
6020;BME280;3038;51.122;6.840;2023-09-19T00:02:47;63325.50;;;-144.63;100.00
6020;BME280;3038;51.122;6.840;2023-09-19T00:05:16;63325.50;;;-144.63;100.00
6020;BME280;3038;51.122;6.840;2023-09-19T00:07:42;63325.50;;;-144.63;100.00
6020;BME280;3038;51.122;6.840;2023-09-19T00:10:07;63325.50;;;-144.63;100.00
6020;BME280;3038;51.122;6.840;2023-09-19T00:12:35;63325.50;;;-144.63;100.00
6020;BME280;3038;51.122;6.840;2023-09-19T00:15:00;63325.50;;;-144.63;100.00
6020;BME280;3038;51.122;6.840;2023-09-19T00:17:26;63325.50;;;-144.63;100.00
6020;BME280;3038;51.122;6.840;2023-09-19T00:19:51;63325.50;;;-144.63;100.00
6020;BME280;3038;51.122;6.840;2023-09-19T00:22:17;63325.50;;;-144.63;100.00
6020;BME280;3038;51.122;6.840;2023-09-19T00:24:44;63325.50;;;-144.63;100.00
6020;BME280;3038;51.122;6.840;2023-09-19T00:27:09;63325.50;;;-144.63;100.00
6020;BME280;3038;51.122;6.840;2023-09-19T00:29:34;63325.50;;;-144.63;100.00
6020;BME280;3038;51.122;6.840;2023-09-19T00:32:00;63325.50;;;-144.63;100.00
6020;BME280;3038;51.122;6.840;2023-09-19T00:34:25;63325.50;;;-144.63;100.00
6020;BME280;3038;51.122;6.840;2023-09-19T00:36:53;63325.50;;;-144.63;100.00
6020;BME280;3038;51.122;6.840;2023-09-19T00:39:18;63325.50;;;-144.63;100.00
6020;BME280;3038;51.122;6.840;2023-09-19T00:41:45;63325.50;;;-144.63;100.00
6020;BME280;3038;51.122;6.840;2023-09-19T00:44:11;63325.50;;;-144.63;100.00
6020;BME280;3038;51.122;6.840;2023-09-19T00:46:37;63325.50;;;-144.63;100.00
6020;BME280;3038;51.122;6.840;2023-09-19T00:49:02;63325.50;;;-144.63;100.00
6020;BME280;3038;51.122;6.840;2023-09-19T00:51:28;63325.50;;;-144.63;100.00
6020;BME280;3038;51.122;6.840;2023-09-19T00:53:55;63325.50;;;-144.63;100.00
6020;BME280;3038;51.122;6.840;2023-09-19T00:56:21;63325.50;;;-144.63;100.00
6020;BME280;3038;51.122;6.840;2023-09-19T00:58:47;63325.50;;;-144.63;100.00
6020;BME280;3038;51.122;6.840;2023-09-19T01:01:13;63325.50;;;-144.63;100.00
6020;BME280;3038;51.122;6.840;2023-09-19T01:03:41;63325.50;;;-144.63;100.00
6020;BME280;3038;51.122;6.840;2023-09-19T01:06:07;63325.50;;;-144.63;100.00
6020;BME280;3038;51.122;6.840;2023-09-19T01:08:33;63325.50;;;-144.63;100.00
6020;BME280;3038;51.122;6.840;2023-09-19T01:11:06;63325.50;;;-144.63;100.00
6020;BME280;3038;51.122;6.840;2023-09-19T01:13:48;63325.50;;;-144.63;100.00
6020;BME280;3038;51.122;6.840;2023-09-19T01:19:06;63325.50;;;-144.63;100.00
6020;BME280;3038;51.122;6.840;2023-09-19T01:22:00;63325.50;;;-144.63;100.00
6020;BME280;3038;51.122;6.840;2023-09-19T01:29:51;63325.50;;;-144.63;100.00
6020;BME280;3038;51.122;6.840;2023-09-19T01:32:18;63325.50;;;-144.63;100.00
6020;BME280;3038;51.122;6.840;2023-09-19T01:34:51;63325.50;;;-144.63;100.00
6020;BME280;3038;51.122;6.840;2023-09-19T01:37:19;63325.50;;;-144.63;100.00
6020;BME280;3038;51.122;6.840;2023-09-19T01:39:47;63325.50;;;-144.63;100.00
6020;BME280;3038;51.122;6.840;2023-09-19T01:42:24;63325.50;;;-144.63;100.00
6020;BME280;3038;51.122;6.840;2023-09-19T01:45:03;63325.50;;;-144.63;100.00
6020;BME280;3038;51.122;6.840;2023-09-19T01:47:33;63325.50;;;-144.63;100.00
6020;BME280;3038;51.122;6.840;2023-09-19T01:50:30;63325.50;;;-144.63;100.00
6020;BME280;3038;51.122;6.840;2023-09-19T01:52:59;63325.50;;;-144.63;100.00
6020;BME280;3038;51.122;6.840;2023-09-19T01:55:29;63325.50;;;-144.63;100.00
6020;BME280;3038;51.122;6.840;2023-09-19T01:58:04;63325.50;;;-144.63;100.00
6020;BME280;3038;51.122;6.840;2023-09-19T02:00:34;63325.50;;;-144.63;100.00
6020;BME280;3038;51.122;6.840;2023-09-19T02:03:02;63325.50;;;-144.63;100.00
6020;BME280;3038;51.122;6.840;2023-09-19T02:05:29;63325.50;;;-144.63;100.00
6020;BME280;3038;51.122;6.840;2023-09-19T02:07:55;63325.50;;;-144.63;100.00
6020;BME280;3038;51.122;6.840;2023-09-19T02:10:21;63325.50;;;-144.63;100.00
6020;BME280;3038;51.122;6.840;2023-09-19T02:12:47;63325.50;;;-144.63;100.00
6020;BME280;3038;51.122;6.840;2023-09-19T02:15:12;63325.50;;;-144.63;100.00
6020;BME280;3038;51.122;6.840;2023-09-19T02:17:38;63325.50;;;-144.63;100.00
6020;BME280;3038;51.122;6.840;2023-09-19T02:20:03;63325.50;;;-144.63;100.00
6020;BME280;3038;51.122;6.840;2023-09-19T02:22:36;63325.50;;;-144.63;100.00
6020;BME280;3038;51.122;6.840;2023-09-19T02:25:02;63325.50;;;-144.63;100.00
6020;BME280;3038;51.122;6.840;2023-09-19T02:27:30;63325.50;;;-144.63;100.00
6020;BME280;3038;51.122;6.840;2023-09-19T02:29:56;63325.50;;;-144.63;100.00
6020;BME280;3038;51.122;6.840;2023-09-19T02:32:21;63325.50;;;-144.63;100.00
6020;BME280;3038;51.122;6.840;2023-09-19T02:34:46;63325.50;;;-144.63;100.00
6020;BME280;3038;51.122;6.840;2023-09-19T02:37:12;63325.50;;;-144.63;100.00
6020;BME280;3038;51.122;6.840;2023-09-19T02:39:38;63325.50;;;-144.63;100.00
6020;BME280;3038;51.122;6.840;2023-09-19T02:42:05;63325.50;;;-144.63;100.00
6020;BME280;3038;51.122;6.840;2023-09-19T02:44:31;63325.50;;;-144.63;100.00
6020;BME280;3038;51.122;6.840;2023-09-19T02:46:56;63325.50;;;-144.63;100.00
6020;BME280;3038;51.122;6.840;2023-09-19T02:49:22;63325.50;;;-144.63;100.00
6020;BME280;3038;51.122;6.840;2023-09-19T02:51:48;63325.50;;;-144.63;100.00
6020;BME280;3038;51.122;6.840;2023-09-19T02:54:14;63325.50;;;-144.63;100.00
6020;BME280;3038;51.122;6.840;2023-09-19T02:56:40;63325.50;;;-144.63;100.00
6020;BME280;3038;51.122;6.840;2023-09-19T02:59:06;63325.50;;;-144.63;100.00
6020;BME280;3038;51.122;6.840;2023-09-19T03:01:31;63325.50;;;-144.63;100.00
6020;BME280;3038;51.122;6.840;2023-09-19T03:03:57;63325.50;;;-144.63;100.00
6020;BME280;3038;51.122;6.840;2023-09-19T03:06:23;63325.50;;;-144.63;100.00
6020;BME280;3038;51.122;6.840;2023-09-19T03:08:49;63325.50;;;-144.63;100.00
6020;BME280;3038;51.122;6.840;2023-09-19T03:11:17;63325.50;;;-144.63;100.00
6020;BME280;3038;51.122;6.840;2023-09-19T03:13:50;63325.50;;;-144.63;100.00
6020;BME280;3038;51.122;6.840;2023-09-19T03:16:15;63325.50;;;-144.63;100.00
6020;BME280;3038;51.122;6.840;2023-09-19T03:18:41;63325.50;;;-144.63;100.00
6020;BME280;3038;51.122;6.840;2023-09-19T03:21:07;63325.50;;;-144.63;100.00
6020;BME280;3038;51.122;6.840;2023-09-19T03:23:32;63325.50;;;-144.63;100.00
6020;BME280;3038;51.122;6.840;2023-09-19T03:25:58;63325.50;;;-144.63;100.00
6020;BME280;3038;51.122;6.840;2023-09-19T03:28:24;63325.50;;;-144.63;100.00
6020;BME280;3038;51.122;6.840;2023-09-19T03:31:04;63325.50;;;-144.63;100.00
6020;BME280;3038;51.122;6.840;2023-09-19T03:33:30;63325.50;;;-144.63;100.00
6020;BME280;3038;51.122;6.840;2023-09-19T03:35:59;63325.50;;;-144.63;100.00
6020;BME280;3038;51.122;6.840;2023-09-19T03:38:26;63325.50;;;-144.63;100.00
6020;BME280;3038;51.122;6.840;2023-09-19T03:40:52;63325.50;;;-144.63;100.00
6020;BME280;3038;51.122;6.840;2023-09-19T03:43:17;63325.50;;;-144.63;100.00
6020;BME280;3038;51.122;6.840;2023-09-19T03:45:44;63325.50;;;-144.63;100.00
6020;BME280;3038;51.122;6.840;2023-09-19T03:48:10;63325.50;;;-144.63;100.00
6020;BME280;3038;51.122;6.840;2023-09-19T03:50:35;63325.50;;;-144.63;100.00
6020;BME280;3038;51.122;6.840;2023-09-19T03:53:01;63325.50;;;-144.63;100.00
6020;BME280;3038;51.122;6.840;2023-09-19T03:55:27;63325.50;;;-144.63;100.00
6020;BME280;3038;51.122;6.840;2023-09-19T03:57:52;63325.50;;;-144.63;100.00
6020;BME280;3038;51.122;6.840;2023-09-19T04:00:18;63325.50;;;-144.63;100.00
6020;BME280;3038;51.122;6.840;2023-09-19T04:02:46;63325.50;;;-144.63;100.00
6020;BME280;3038;51.122;6.840;2023-09-19T04:05:11;63325.50;;;-144.63;100.00
6020;BME280;3038;51.122;6.840;2023-09-19T04:07:37;63325.50;;;-144.63;100.00
6020;BME280;3038;51.122;6.840;2023-09-19T04:10:02;63325.50;;;-144.63;100.00
6020;BME280;3038;51.122;6.840;2023-09-19T04:12:28;63325.50;;;-144.63;100.00
6020;BME280;3038;51.122;6.840;2023-09-19T04:14:53;63325.50;;;-144.63;100.00
6020;BME280;3038;51.122;6.840;2023-09-19T04:17:19;63325.50;;;-144.63;100.00
6020;BME280;3038;51.122;6.840;2023-09-19T04:19:45;63325.50;;;-144.63;100.00
6020;BME280;3038;51.122;6.840;2023-09-19T04:22:11;63325.50;;;-144.63;100.00
6020;BME280;3038;51.122;6.840;2023-09-19T04:24:37;63325.50;;;-144.63;100.00
6020;BME280;3038;51.122;6.840;2023-09-19T04:27:04;63325.50;;;-144.63;100.00
6020;BME280;3038;51.122;6.840;2023-09-19T04:29:30;63325.50;;;-144.63;100.00
6020;BME280;3038;51.122;6.840;2023-09-19T04:31:56;63325.50;;;-144.63;100.00
6020;BME280;3038;51.122;6.840;2023-09-19T04:34:24;63325.50;;;-144.63;100.00
6020;BME280;3038;51.122;6.840;2023-09-19T04:36:50;63325.50;;;-144.63;100.00
6020;BME280;3038;51.122;6.840;2023-09-19T04:39:15;63325.50;;;-144.63;100.00
6020;BME280;3038;51.122;6.840;2023-09-19T04:41:42;63325.50;;;-144.63;100.00
6020;BME280;3038;51.122;6.840;2023-09-19T04:44:08;63325.50;;;-144.63;100.00
6020;BME280;3038;51.122;6.840;2023-09-19T04:46:34;63325.50;;;-144.63;100.00
6020;BME280;3038;51.122;6.840;2023-09-19T04:49:00;63325.50;;;-144.63;100.00
6020;BME280;3038;51.122;6.840;2023-09-19T04:51:25;63325.50;;;-144.63;100.00
6020;BME280;3038;51.122;6.840;2023-09-19T04:53:54;63325.50;;;-144.63;100.00
6020;BME280;3038;51.122;6.840;2023-09-19T04:56:19;63325.50;;;-144.63;100.00
6020;BME280;3038;51.122;6.840;2023-09-19T04:58:46;63325.50;;;-144.63;100.00
6020;BME280;3038;51.122;6.840;2023-09-19T05:01:11;63325.50;;;-144.63;100.00
6020;BME280;3038;51.122;6.840;2023-09-19T05:03:39;63325.50;;;-144.63;100.00
6020;BME280;3038;51.122;6.840;2023-09-19T05:06:04;63325.50;;;-144.63;100.00
6020;BME280;3038;51.122;6.840;2023-09-19T05:08:30;63325.50;;;-144.63;100.00
6020;BME280;3038;51.122;6.840;2023-09-19T05:10:55;63325.50;;;-144.63;100.00
6020;BME280;3038;51.122;6.840;2023-09-19T05:13:21;63325.50;;;-144.63;100.00
6020;BME280;3038;51.122;6.840;2023-09-19T05:15:48;63325.50;;;-144.63;100.00
6020;BME280;3038;51.122;6.840;2023-09-19T05:18:15;63325.50;;;-144.63;100.00
6020;BME280;3038;51.122;6.840;2023-09-19T05:20:40;63325.50;;;-144.63;100.00
6020;BME280;3038;51.122;6.840;2023-09-19T05:23:06;63325.50;;;-144.63;100.00
6020;BME280;3038;51.122;6.840;2023-09-19T05:25:37;63325.50;;;-144.63;100.00
6020;BME280;3038;51.122;6.840;2023-09-19T05:28:03;63325.50;;;-144.63;100.00
6020;BME280;3038;51.122;6.840;2023-09-19T05:30:31;63325.50;;;-144.63;100.00
6020;BME280;3038;51.122;6.840;2023-09-19T05:32:57;63325.50;;;-144.63;100.00
6020;BME280;3038;51.122;6.840;2023-09-19T05:35:23;63325.50;;;-144.63;100.00
6020;BME280;3038;51.122;6.840;2023-09-19T05:37:53;63325.50;;;-144.63;100.00
6020;BME280;3038;51.122;6.840;2023-09-19T05:40:20;63325.50;;;-144.63;100.00
6020;BME280;3038;51.122;6.840;2023-09-19T05:42:46;63325.50;;;-144.63;100.00
6020;BME280;3038;51.122;6.840;2023-09-19T05:45:12;63325.50;;;-144.63;100.00
6020;BME280;3038;51.122;6.840;2023-09-19T05:47:41;63325.50;;;-144.63;100.00
6020;BME280;3038;51.122;6.840;2023-09-19T05:50:08;63325.50;;;-144.63;100.00
6020;BME280;3038;51.122;6.840;2023-09-19T05:52:34;63325.50;;;-144.63;100.00
6020;BME280;3038;51.122;6.840;2023-09-19T05:55:00;63325.50;;;-144.63;100.00
6020;BME280;3038;51.122;6.840;2023-09-19T05:57:25;63325.50;;;-144.63;100.00
6020;BME280;3038;51.122;6.840;2023-09-19T05:59:50;63325.50;;;-144.63;100.00
6020;BME280;3038;51.122;6.840;2023-09-19T06:02:16;63325.50;;;-144.63;100.00
6020;BME280;3038;51.122;6.840;2023-09-19T06:04:41;63325.50;;;-144.63;100.00
6020;BME280;3038;51.122;6.840;2023-09-19T06:07:06;63325.50;;;-144.63;100.00
6020;BME280;3038;51.122;6.840;2023-09-19T06:09:32;63325.50;;;-144.63;100.00
6020;BME280;3038;51.122;6.840;2023-09-19T06:11:58;63325.50;;;-144.63;100.00
6020;BME280;3038;51.122;6.840;2023-09-19T06:14:23;63325.50;;;-144.63;100.00
6020;BME280;3038;51.122;6.840;2023-09-19T06:16:50;63325.50;;;-144.63;100.00
6020;BME280;3038;51.122;6.840;2023-09-19T06:19:15;63325.50;;;-144.63;100.00
6020;BME280;3038;51.122;6.840;2023-09-19T06:21:41;63325.50;;;-144.63;100.00
6020;BME280;3038;51.122;6.840;2023-09-19T06:24:06;63325.50;;;-144.63;100.00
6020;BME280;3038;51.122;6.840;2023-09-19T06:26:32;63325.50;;;-144.63;100.00
6020;BME280;3038;51.122;6.840;2023-09-19T06:28:57;63325.50;;;-144.63;100.00
6020;BME280;3038;51.122;6.840;2023-09-19T06:31:25;63325.50;;;-144.63;100.00
6020;BME280;3038;51.122;6.840;2023-09-19T06:33:52;63325.50;;;-144.63;100.00
6020;BME280;3038;51.122;6.840;2023-09-19T06:36:17;63325.50;;;-144.63;100.00
6020;BME280;3038;51.122;6.840;2023-09-19T06:38:42;63325.50;;;-144.63;100.00
6020;BME280;3038;51.122;6.840;2023-09-19T06:41:08;63325.50;;;-144.63;100.00
6020;BME280;3038;51.122;6.840;2023-09-19T06:43:34;63325.50;;;-144.63;100.00
6020;BME280;3038;51.122;6.840;2023-09-19T06:46:00;63325.50;;;-144.63;100.00
6020;BME280;3038;51.122;6.840;2023-09-19T06:48:26;63325.50;;;-144.63;100.00
6020;BME280;3038;51.122;6.840;2023-09-19T06:50:55;63325.50;;;-144.63;100.00
6020;BME280;3038;51.122;6.840;2023-09-19T06:53:22;63325.50;;;-144.63;100.00
6020;BME280;3038;51.122;6.840;2023-09-19T06:55:49;63325.50;;;-144.63;100.00
6020;BME280;3038;51.122;6.840;2023-09-19T06:58:16;63325.50;;;-144.63;100.00
6020;BME280;3038;51.122;6.840;2023-09-19T07:00:42;63325.50;;;-144.63;100.00
6020;BME280;3038;51.122;6.840;2023-09-19T07:03:08;63325.50;;;-144.63;100.00
6020;BME280;3038;51.122;6.840;2023-09-19T07:05:37;63325.50;;;-144.63;100.00
6020;BME280;3038;51.122;6.840;2023-09-19T07:08:04;63325.50;;;-144.63;100.00
6020;BME280;3038;51.122;6.840;2023-09-19T07:10:31;63325.50;;;-144.63;100.00
6020;BME280;3038;51.122;6.840;2023-09-19T07:13:01;63325.50;;;-144.63;100.00
6020;BME280;3038;51.122;6.840;2023-09-19T07:15:28;63325.50;;;-144.63;100.00
6020;BME280;3038;51.122;6.840;2023-09-19T07:17:55;63325.50;;;-144.63;100.00
6020;BME280;3038;51.122;6.840;2023-09-19T07:20:22;63325.50;;;-144.63;100.00
6020;BME280;3038;51.122;6.840;2023-09-19T07:22:49;63325.50;;;-144.63;100.00
6020;BME280;3038;51.122;6.840;2023-09-19T07:25:15;63325.50;;;-144.63;100.00
6020;BME280;3038;51.122;6.840;2023-09-19T07:27:41;63325.50;;;-144.63;100.00
6020;BME280;3038;51.122;6.840;2023-09-19T07:30:07;63325.50;;;-144.63;100.00
6020;BME280;3038;51.122;6.840;2023-09-19T07:32:33;63325.50;;;-144.63;100.00
6020;BME280;3038;51.122;6.840;2023-09-19T07:35:00;63325.50;;;-144.63;100.00
6020;BME280;3038;51.122;6.840;2023-09-19T07:37:25;63325.50;;;-144.63;100.00
6020;BME280;3038;51.122;6.840;2023-09-19T07:39:50;63325.50;;;-144.63;100.00
6020;BME280;3038;51.122;6.840;2023-09-19T07:44:44;100840.88;;;16.81;76.87
6020;BME280;3038;51.122;6.840;2023-09-19T07:47:13;100843.34;;;16.82;76.47
6020;BME280;3038;51.122;6.840;2023-09-19T07:49:39;100845.50;;;16.93;76.23
6020;BME280;3038;51.122;6.840;2023-09-19T07:52:04;100846.31;;;16.94;75.79
6020;BME280;3038;51.122;6.840;2023-09-19T07:54:30;100844.84;;;16.91;75.85
6020;BME280;3038;51.122;6.840;2023-09-19T07:57:01;100837.03;;;16.96;75.74
6020;BME280;3038;51.122;6.840;2023-09-19T07:59:26;100831.28;;;17.00;75.66
6020;BME280;3038;51.122;6.840;2023-09-19T08:01:51;100834.19;;;17.05;75.39
6020;BME280;3038;51.122;6.840;2023-09-19T08:04:17;100830.91;;;17.09;74.60
6020;BME280;3038;51.122;6.840;2023-09-19T08:06:44;100831.34;;;17.13;74.77
6020;BME280;3038;51.122;6.840;2023-09-19T08:09:10;100840.47;;;17.25;75.12
6020;BME280;3038;51.122;6.840;2023-09-19T08:11:37;100848.34;;;17.27;73.72
6020;BME280;3038;51.122;6.840;2023-09-19T08:14:02;100856.41;;;17.33;74.06
6020;BME280;3038;51.122;6.840;2023-09-19T08:16:27;100852.91;;;17.39;73.94
6020;BME280;3038;51.122;6.840;2023-09-19T08:18:53;100851.69;;;17.48;73.31
6020;BME280;3038;51.122;6.840;2023-09-19T08:21:23;100850.91;;;17.61;73.60
6020;BME280;3038;51.122;6.840;2023-09-19T08:23:49;100833.78;;;17.69;73.45
6020;BME280;3038;51.122;6.840;2023-09-19T08:26:16;100829.88;;;17.65;72.38
6020;BME280;3038;51.122;6.840;2023-09-19T08:28:42;100842.25;;;17.66;73.38
6020;BME280;3038;51.122;6.840;2023-09-19T08:31:08;100843.31;;;17.78;72.13
6020;BME280;3038;51.122;6.840;2023-09-19T08:33:35;100841.06;;;17.82;72.63
6020;BME280;3038;51.122;6.840;2023-09-19T08:36:02;100853.66;;;17.81;71.98
6020;BME280;3038;51.122;6.840;2023-09-19T08:38:30;100857.59;;;17.98;72.91
6020;BME280;3038;51.122;6.840;2023-09-19T08:41:04;100858.03;;;18.15;72.00
6020;BME280;3038;51.122;6.840;2023-09-19T08:43:30;100856.78;;;18.18;70.94
6020;BME280;3038;51.122;6.840;2023-09-19T08:46:07;100856.59;;;18.19;70.31
6020;BME280;3038;51.122;6.840;2023-09-19T08:48:39;100856.19;;;18.16;69.44
6020;BME280;3038;51.122;6.840;2023-09-19T08:51:11;100861.16;;;18.19;69.25
6020;BME280;3038;51.122;6.840;2023-09-19T08:53:42;100857.22;;;18.21;69.35
6020;BME280;3038;51.122;6.840;2023-09-19T08:56:16;100852.25;;;18.38;69.49
6020;BME280;3038;51.122;6.840;2023-09-19T08:58:55;100850.38;;;18.52;68.51
6020;BME280;3038;51.122;6.840;2023-09-19T09:01:23;100854.09;;;18.58;68.24
6020;BME280;3038;51.122;6.840;2023-09-19T09:03:53;100861.53;;;18.56;67.90
6020;BME280;3038;51.122;6.840;2023-09-19T09:06:20;100860.09;;;18.60;66.76
6020;BME280;3038;51.122;6.840;2023-09-19T09:08:46;100858.88;;;18.69;67.09
6020;BME280;3038;51.122;6.840;2023-09-19T09:11:13;100860.50;;;18.70;66.50
6020;BME280;3038;51.122;6.840;2023-09-19T09:13:40;100866.47;;;18.85;67.09
6020;BME280;3038;51.122;6.840;2023-09-19T09:16:07;100859.56;;;19.09;65.22
6020;BME280;3038;51.122;6.840;2023-09-19T09:18:33;100853.41;;;19.02;64.70
6020;BME280;3038;51.122;6.840;2023-09-19T09:20:59;100855.88;;;19.04;64.88
6020;BME280;3038;51.122;6.840;2023-09-19T09:23:26;100859.56;;;19.16;65.05
6020;BME280;3038;51.122;6.840;2023-09-19T09:25:55;100851.81;;;19.39;65.05
6020;BME280;3038;51.122;6.840;2023-09-19T09:28:26;100849.47;;;19.49;63.28
6020;BME280;3038;51.122;6.840;2023-09-19T09:30:54;100843.81;;;19.58;61.87
6020;BME280;3038;51.122;6.840;2023-09-19T09:33:20;100848.19;;;19.59;61.13
6020;BME280;3038;51.122;6.840;2023-09-19T09:35:57;100856.38;;;19.32;60.81
6020;BME280;3038;51.122;6.840;2023-09-19T09:38:27;100843.66;;;19.52;61.74
6020;BME280;3038;51.122;6.840;2023-09-19T09:40:56;100851.06;;;19.57;61.04
6020;BME280;3038;51.122;6.840;2023-09-19T09:43:47;100838.88;;;19.55;60.82
6020;BME280;3038;51.122;6.840;2023-09-19T09:46:18;100845.59;;;19.77;61.21
6020;BME280;3038;51.122;6.840;2023-09-19T09:49:00;100849.56;;;20.31;60.59
6020;BME280;3038;51.122;6.840;2023-09-19T09:52:04;100844.44;;;20.23;59.48
6020;BME280;3038;51.122;6.840;2023-09-19T09:54:37;100844.44;;;20.23;58.51
6020;BME280;3038;51.122;6.840;2023-09-19T09:57:07;100842.31;;;20.57;57.78
6020;BME280;3038;51.122;6.840;2023-09-19T09:59:56;100854.72;;;20.33;58.93
6020;BME280;3038;51.122;6.840;2023-09-19T10:02:41;100838.41;;;20.52;58.92
6020;BME280;3038;51.122;6.840;2023-09-19T10:05:17;100851.13;;;20.39;58.17
6020;BME280;3038;51.122;6.840;2023-09-19T10:07:47;100849.84;;;20.23;58.22
6020;BME280;3038;51.122;6.840;2023-09-19T10:10:31;100844.03;;;20.51;59.20
6020;BME280;3038;51.122;6.840;2023-09-19T10:13:20;100840.88;;;20.72;57.90
6020;BME280;3038;51.122;6.840;2023-09-19T10:15:52;100837.09;;;20.98;58.64
6020;BME280;3038;51.122;6.840;2023-09-19T10:18:21;100838.56;;;21.13;58.04
6020;BME280;3038;51.122;6.840;2023-09-19T10:20:48;100843.50;;;21.16;56.52
6020;BME280;3038;51.122;6.840;2023-09-19T10:23:18;100832.41;;;21.05;54.99
6020;BME280;3038;51.122;6.840;2023-09-19T10:25:49;100833.16;;;21.61;54.51
6020;BME280;3038;51.122;6.840;2023-09-19T10:28:17;100814.00;;;22.04;52.43
6020;BME280;3038;51.122;6.840;2023-09-19T10:30:48;100818.28;;;22.47;52.55
6020;BME280;3038;51.122;6.840;2023-09-19T10:33:16;100821.81;;;22.60;52.13
6020;BME280;3038;51.122;6.840;2023-09-19T10:35:44;100808.16;;;22.54;50.50
6020;BME280;3038;51.122;6.840;2023-09-19T10:38:11;100804.63;;;22.54;50.46
6020;BME280;3038;51.122;6.840;2023-09-19T10:40:38;100805.44;;;22.66;50.21
6020;BME280;3038;51.122;6.840;2023-09-19T10:43:12;100805.59;;;23.40;48.65
6020;BME280;3038;51.122;6.840;2023-09-19T10:45:38;100810.16;;;23.97;47.93
6020;BME280;3038;51.122;6.840;2023-09-19T10:48:06;100816.22;;;23.87;47.59
6020;BME280;3038;51.122;6.840;2023-09-19T10:50:36;100804.47;;;23.65;46.44
6020;BME280;3038;51.122;6.840;2023-09-19T10:53:07;100823.63;;;23.46;48.13
6020;BME280;3038;51.122;6.840;2023-09-19T10:55:36;100807.81;;;23.43;48.12
6020;BME280;3038;51.122;6.840;2023-09-19T10:58:02;100811.63;;;23.71;47.10
6020;BME280;3038;51.122;6.840;2023-09-19T11:00:51;100820.19;;;23.96;46.60
6020;BME280;3038;51.122;6.840;2023-09-19T11:03:17;100819.00;;;24.26;45.97
6020;BME280;3038;51.122;6.840;2023-09-19T11:06:39;100821.41;;;24.78;44.49
6020;BME280;3038;51.122;6.840;2023-09-19T11:09:01;100818.66;;;24.56;44.35
6020;BME280;3038;51.122;6.840;2023-09-19T11:11:51;100819.34;;;25.78;42.50
6020;BME280;3038;51.122;6.840;2023-09-19T11:30:34;100823.38;;;25.48;42.56
6020;BME280;3038;51.122;6.840;2023-09-19T11:33:29;100820.44;;;25.55;42.35
6020;BME280;3038;51.122;6.840;2023-09-19T11:36:10;100817.06;;;26.81;39.81
6020;BME280;3038;51.122;6.840;2023-09-19T11:44:31;100821.25;;;27.04;39.01
6020;BME280;3038;51.122;6.840;2023-09-19T11:49:18;100821.34;;;26.30;41.04
6020;BME280;3038;51.122;6.840;2023-09-19T11:51:50;100824.97;;;26.88;38.86
6020;BME280;3038;51.122;6.840;2023-09-19T11:54:19;100819.06;;;27.06;37.49
6020;BME280;3038;51.122;6.840;2023-09-19T11:56:51;100819.25;;;27.57;37.03
6020;BME280;3038;51.122;6.840;2023-09-19T11:59:38;100814.38;;;28.00;36.79
6020;BME280;3038;51.122;6.840;2023-09-19T12:02:04;100818.19;;;28.20;35.96
6020;BME280;3038;51.122;6.840;2023-09-19T12:04:40;100812.72;;;28.35;32.99
6020;BME280;3038;51.122;6.840;2023-09-19T12:07:09;100822.56;;;28.10;34.48
6020;BME280;3038;51.122;6.840;2023-09-19T12:09:45;100803.44;;;27.75;34.25
6020;BME280;3038;51.122;6.840;2023-09-19T12:12:24;100803.94;;;27.46;35.20
6020;BME280;3038;51.122;6.840;2023-09-19T12:14:54;100808.34;;;28.13;35.25
6020;BME280;3038;51.122;6.840;2023-09-19T12:17:22;100792.53;;;28.00;33.64
6020;BME280;3038;51.122;6.840;2023-09-19T12:19:53;100790.91;;;27.74;34.21
6020;BME280;3038;51.122;6.840;2023-09-19T12:22:18;100776.16;;;27.75;34.61
6020;BME280;3038;51.122;6.840;2023-09-19T12:24:45;100761.16;;;27.72;34.62
6020;BME280;3038;51.122;6.840;2023-09-19T12:27:11;100781.88;;;28.04;34.07
6020;BME280;3038;51.122;6.840;2023-09-19T12:29:46;100786.00;;;27.86;33.52
6020;BME280;3038;51.122;6.840;2023-09-19T12:32:12;100781.38;;;27.81;33.61
6020;BME280;3038;51.122;6.840;2023-09-19T12:34:50;100797.44;;;27.78;33.55
6020;BME280;3038;51.122;6.840;2023-09-19T12:37:17;100784.59;;;28.29;33.20
6020;BME280;3038;51.122;6.840;2023-09-19T12:39:47;100777.22;;;28.30;32.99
6020;BME280;3038;51.122;6.840;2023-09-19T12:42:26;100773.41;;;28.36;33.56
6020;BME280;3038;51.122;6.840;2023-09-19T12:44:58;100762.03;;;28.83;32.66
6020;BME280;3038;51.122;6.840;2023-09-19T12:47:27;100769.88;;;29.00;31.72
6020;BME280;3038;51.122;6.840;2023-09-19T12:50:09;100759.00;;;28.85;31.20
6020;BME280;3038;51.122;6.840;2023-09-19T12:52:43;100759.31;;;29.33;31.69
6020;BME280;3038;51.122;6.840;2023-09-19T12:55:20;100750.75;;;29.39;30.90
6020;BME280;3038;51.122;6.840;2023-09-19T13:00:39;100746.38;;;29.78;30.32
6020;BME280;3038;51.122;6.840;2023-09-19T13:06:02;100745.91;;;29.31;30.26
6020;BME280;3038;51.122;6.840;2023-09-19T13:08:37;100755.03;;;29.16;30.91
6020;BME280;3038;51.122;6.840;2023-09-19T13:13:46;100747.88;;;28.66;31.41
6020;BME280;3038;51.122;6.840;2023-09-19T13:16:16;100752.91;;;28.38;32.54
6020;BME280;3038;51.122;6.840;2023-09-19T13:18:51;100746.00;;;28.56;32.10
6020;BME280;3038;51.122;6.840;2023-09-19T13:21:31;100749.47;;;28.82;32.29
6020;BME280;3038;51.122;6.840;2023-09-19T13:24:24;100748.31;;;27.52;33.89
6020;BME280;3038;51.122;6.840;2023-09-19T13:26:54;100748.63;;;25.78;36.30
6020;BME280;3038;51.122;6.840;2023-09-19T13:29:19;100763.97;;;25.35;37.61
6020;BME280;3038;51.122;6.840;2023-09-19T13:31:49;100753.66;;;24.66;39.47
6020;BME280;3038;51.122;6.840;2023-09-19T13:34:15;100747.44;;;24.93;38.83
6020;BME280;3038;51.122;6.840;2023-09-19T13:36:43;100732.16;;;26.00;38.21
6020;BME280;3038;51.122;6.840;2023-09-19T13:39:09;100745.81;;;25.73;39.56
6020;BME280;3038;51.122;6.840;2023-09-19T13:41:35;100745.25;;;25.11;39.21
6020;BME280;3038;51.122;6.840;2023-09-19T13:44:02;100734.88;;;23.87;41.10
6020;BME280;3038;51.122;6.840;2023-09-19T13:46:27;100741.06;;;23.37;42.87
6020;BME280;3038;51.122;6.840;2023-09-19T13:48:53;100745.03;;;22.89;44.34